createdAt,value
2018-10-02T00:02:03.403Z,7.40
2018-10-02T00:05:07.828Z,7.30
2018-10-02T00:08:12.129Z,7.30
2018-10-02T00:12:23.723Z,7.20
2018-10-02T00:15:28.011Z,7.20
2018-10-02T00:18:32.491Z,7.10
2018-10-02T00:21:36.775Z,7.10
2018-10-02T00:24:41.096Z,7.10
2018-10-02T00:27:45.392Z,7.10
2018-10-02T00:30:49.622Z,7.00
2018-10-02T00:33:53.897Z,7.00
2018-10-02T00:36:58.180Z,7.00
2018-10-02T00:40:02.537Z,7.00
2018-10-02T00:43:06.945Z,7.00
2018-10-02T00:46:11.231Z,7.10
2018-10-02T00:49:15.548Z,7.10
2018-10-02T00:52:19.824Z,7.20
2018-10-02T00:55:25.017Z,7.20
2018-10-02T00:58:29.329Z,7.10
2018-10-02T01:01:33.650Z,7.10
2018-10-02T01:04:37.972Z,7.10
2018-10-02T01:07:42.323Z,7.00
2018-10-02T01:10:46.571Z,6.90
2018-10-02T01:13:50.839Z,6.90
2018-10-02T01:16:55.185Z,6.80
2018-10-02T01:19:59.457Z,6.80
2018-10-02T01:23:03.861Z,6.80
2018-10-02T01:26:08.148Z,6.70
2018-10-02T01:29:12.446Z,6.70
2018-10-02T01:32:16.714Z,6.70
2018-10-02T01:35:20.968Z,6.70
2018-10-02T01:38:25.312Z,6.70
2018-10-02T01:41:29.652Z,6.70
2018-10-02T01:44:33.914Z,6.70
2018-10-02T01:47:38.171Z,6.70
2018-10-02T01:50:42.461Z,6.70
2018-10-02T01:53:46.849Z,6.70
2018-10-02T01:56:51.291Z,6.70
2018-10-02T01:59:55.583Z,6.80
2018-10-02T02:02:59.851Z,6.80
2018-10-02T02:06:04.231Z,6.70
2018-10-02T02:09:08.807Z,6.70
2018-10-02T02:12:13.137Z,6.80
2018-10-02T02:15:17.474Z,6.80
2018-10-02T02:18:21.799Z,6.80
2018-10-02T02:21:26.161Z,6.80
2018-10-02T02:24:30.444Z,6.80
2018-10-02T02:27:34.806Z,6.80
2018-10-02T02:30:39.109Z,6.90
2018-10-02T02:33:43.415Z,6.90
2018-10-02T02:36:47.733Z,6.90
2018-10-02T02:39:52.064Z,6.90
2018-10-02T02:42:56.399Z,6.90
2018-10-02T02:46:00.693Z,7.00
2018-10-02T02:49:10.277Z,7.00
2018-10-02T02:52:15.546Z,7.00
2018-10-02T02:55:19.923Z,7.00
2018-10-02T02:58:24.197Z,7.00
2018-10-02T03:01:29.234Z,7.10
2018-10-02T03:04:33.588Z,7.10
2018-10-02T03:07:37.898Z,7.10
2018-10-02T03:10:42.229Z,7.10
2018-10-02T03:13:46.551Z,7.10
2018-10-02T03:16:50.868Z,7.10
2018-10-02T03:19:55.232Z,7.20
2018-10-02T03:22:59.521Z,7.20
2018-10-02T03:26:03.843Z,7.20
2018-10-02T03:29:08.469Z,7.20
2018-10-02T03:32:12.798Z,7.30
2018-10-02T03:35:17.121Z,7.30
2018-10-02T03:38:21.418Z,7.30
2018-10-02T03:41:25.754Z,7.30
2018-10-02T03:44:30.036Z,7.30
2018-10-02T03:47:34.405Z,7.30
2018-10-02T03:50:38.706Z,7.30
2018-10-02T03:53:44.065Z,7.30
2018-10-02T03:56:48.491Z,7.30
2018-10-02T03:59:52.821Z,7.30
2018-10-02T04:02:57.088Z,7.30
2018-10-02T04:06:01.458Z,7.30
2018-10-02T04:09:09.165Z,7.30
2018-10-02T04:12:13.416Z,7.30
2018-10-02T04:15:17.665Z,7.30
2018-10-02T04:18:22.124Z,7.40
2018-10-02T04:21:31.571Z,7.40
2018-10-02T04:24:35.846Z,7.30
2018-10-02T04:27:40.336Z,7.40
2018-10-02T04:30:44.628Z,7.40
2018-10-02T04:33:49.227Z,7.40
2018-10-02T04:36:53.484Z,7.40
2018-10-02T04:39:57.715Z,7.40
2018-10-02T04:43:02.127Z,7.40
2018-10-02T04:46:06.473Z,7.40
2018-10-02T04:49:10.778Z,7.40
2018-10-02T04:52:15.088Z,7.40
2018-10-02T04:55:19.412Z,7.40
2018-10-02T04:58:23.741Z,7.40
2018-10-02T05:01:28.056Z,7.40
2018-10-02T05:04:32.388Z,7.40
2018-10-02T05:07:36.695Z,7.40
2018-10-02T05:10:40.964Z,7.30
2018-10-02T05:13:45.243Z,7.30
2018-10-02T05:16:49.565Z,7.30
2018-10-02T05:19:53.899Z,7.30
2018-10-02T05:22:58.174Z,7.30
2018-10-02T05:26:02.518Z,7.30
2018-10-02T05:29:06.970Z,7.30
2018-10-02T05:32:11.264Z,7.30
2018-10-02T05:35:15.737Z,7.30
2018-10-02T05:38:19.904Z,7.30
2018-10-02T05:41:24.180Z,7.30
2018-10-02T05:44:28.428Z,7.30
2018-10-02T05:47:32.797Z,7.40
2018-10-02T05:50:37.136Z,7.40
2018-10-02T05:53:41.445Z,7.40
2018-10-02T05:56:45.768Z,7.40
2018-10-02T05:59:50.039Z,7.40
2018-10-02T06:02:54.409Z,7.40
2018-10-02T06:05:58.747Z,7.40
2018-10-02T06:09:03.080Z,7.40
2018-10-02T06:12:07.500Z,7.40
2018-10-02T06:15:11.760Z,7.40
2018-10-02T06:18:16.101Z,7.40
2018-10-02T06:21:20.425Z,7.50
2018-10-02T06:24:24.732Z,7.50
2018-10-02T06:27:29.065Z,7.50
2018-10-02T06:30:33.444Z,7.50
2018-10-02T06:33:37.916Z,7.60
2018-10-02T06:36:42.464Z,7.60
2018-10-02T06:39:46.774Z,7.70
2018-10-02T06:42:51.055Z,7.80
2018-10-02T06:45:55.401Z,7.90
2018-10-02T06:48:59.723Z,8.00
2018-10-02T06:52:04.276Z,8.10
2018-10-02T06:55:09.260Z,8.20
2018-10-02T06:58:13.632Z,8.20
2018-10-02T07:01:17.906Z,8.40
2018-10-02T07:04:22.250Z,8.30
2018-10-02T07:07:26.513Z,8.30
2018-10-02T07:10:30.792Z,8.40
2018-10-02T07:13:35.130Z,8.30
2018-10-02T07:16:40.324Z,8.40
2018-10-02T07:19:44.635Z,8.40
2018-10-02T07:22:48.997Z,8.40
2018-10-02T07:25:53.306Z,8.40
2018-10-02T07:28:57.652Z,6.70
2018-10-02T07:32:01.949Z,8.40
2018-10-02T07:35:06.857Z,8.50
2018-10-02T07:38:11.218Z,8.50
2018-10-02T07:41:15.540Z,8.50
2018-10-02T07:44:19.899Z,8.50
2018-10-02T07:47:24.205Z,8.60
2018-10-02T07:50:28.469Z,8.60
2018-10-02T07:53:32.875Z,8.60
2018-10-02T07:56:37.209Z,8.60
2018-10-02T07:59:41.642Z,8.60
2018-10-02T08:02:45.941Z,8.60
2018-10-02T08:05:50.405Z,8.60
2018-10-02T08:08:54.780Z,8.60
2018-10-02T08:11:59.127Z,8.70
2018-10-02T08:15:03.516Z,8.60
2018-10-02T08:18:08.155Z,8.60
2018-10-02T08:21:12.455Z,8.60
2018-10-02T08:24:16.765Z,8.60
2018-10-02T08:27:21.161Z,8.60
2018-10-02T08:30:25.566Z,8.70
2018-10-02T08:33:29.874Z,8.60
2018-10-02T08:36:34.214Z,8.60
2018-10-02T08:39:38.574Z,8.60
2018-10-02T08:42:42.847Z,8.60
2018-10-02T08:45:47.162Z,8.60
2018-10-02T08:48:51.474Z,8.50
2018-10-02T08:51:55.830Z,8.50
2018-10-02T08:55:02.272Z,8.60
2018-10-02T08:58:06.601Z,8.60
2018-10-02T09:01:10.934Z,8.60
2018-10-02T09:04:15.227Z,8.60
2018-10-02T09:07:19.533Z,8.60
2018-10-02T09:10:23.869Z,8.70
2018-10-02T09:13:28.890Z,8.70
2018-10-02T09:16:33.293Z,8.80
2018-10-02T09:19:37.592Z,8.80
2018-10-02T09:22:41.946Z,8.80
2018-10-02T09:25:46.275Z,8.80
2018-10-02T09:28:50.629Z,8.90
2018-10-02T09:32:00.249Z,8.80
2018-10-02T09:35:09.817Z,8.80
2018-10-02T09:38:19.473Z,8.80
2018-10-02T09:41:29.232Z,8.80
2018-10-02T09:44:33.594Z,8.80
2018-10-02T09:47:37.918Z,8.80
2018-10-02T09:50:42.204Z,8.90
2018-10-02T09:53:46.601Z,8.90
2018-10-02T09:56:50.878Z,9.00
2018-10-02T09:59:55.180Z,9.00
2018-10-02T10:02:59.580Z,9.00
2018-10-02T10:06:03.879Z,9.00
2018-10-02T10:09:09.250Z,9.10
2018-10-02T10:12:13.543Z,9.20
2018-10-02T10:15:17.802Z,9.20
2018-10-02T10:18:22.192Z,9.30
2018-10-02T10:21:27.144Z,9.40
2018-10-02T10:24:31.434Z,9.40
2018-10-02T10:27:35.914Z,9.50
2018-10-02T10:30:41.151Z,9.60
2018-10-02T10:33:45.422Z,9.60
2018-10-02T10:36:49.790Z,9.70
2018-10-02T10:39:54.221Z,9.80
2018-10-02T10:42:58.578Z,9.90
2018-10-02T10:46:02.869Z,10.00
2018-10-02T10:49:07.213Z,10.10
2018-10-02T10:52:11.504Z,10.10
2018-10-02T10:55:27.810Z,10.20
2018-10-02T10:58:32.212Z,10.30
2018-10-02T11:01:36.481Z,10.40
2018-10-02T11:04:40.863Z,10.60
2018-10-02T11:07:45.272Z,10.80
2018-10-02T11:10:49.734Z,11.10
2018-10-02T11:13:54.147Z,11.30
2018-10-02T11:16:58.423Z,11.60
2018-10-02T11:20:03.510Z,11.90
2018-10-02T11:23:07.798Z,12.00
2018-10-02T11:26:12.661Z,12.10
2018-10-02T11:29:17.034Z,12.30
2018-10-02T11:32:21.473Z,12.30
2018-10-02T11:35:26.163Z,12.50
2018-10-02T11:38:30.535Z,12.70
2018-10-02T11:41:34.829Z,12.80
2018-10-02T11:44:39.225Z,12.80
2018-10-02T11:47:43.506Z,12.70
2018-10-02T11:50:47.936Z,12.60
2018-10-02T11:53:52.212Z,12.50
2018-10-02T11:56:56.529Z,12.60
2018-10-02T12:00:00.862Z,12.70
2018-10-02T12:03:05.200Z,12.80
2018-10-02T12:06:10.261Z,12.90
2018-10-02T12:09:14.646Z,13.00
2018-10-02T12:12:18.978Z,13.10
2018-10-02T12:15:23.416Z,13.10
2018-10-02T12:18:27.706Z,12.90
2018-10-02T12:21:32.003Z,12.80
2018-10-02T12:24:36.354Z,12.60
2018-10-02T12:27:40.703Z,12.50
2018-10-02T12:30:45.037Z,12.50
2018-10-02T12:33:49.352Z,12.60
2018-10-02T12:36:53.633Z,12.70
2018-10-02T12:39:57.956Z,12.70
2018-10-02T12:43:02.289Z,12.60
2018-10-02T12:46:07.318Z,12.60
2018-10-02T12:49:11.647Z,12.60
2018-10-02T12:52:16.373Z,12.70
2018-10-02T12:55:20.711Z,12.90
2018-10-02T12:58:24.976Z,13.00
2018-10-02T13:01:29.347Z,13.10
2018-10-02T13:04:33.699Z,13.20
2018-10-02T13:07:38.007Z,13.30
2018-10-02T13:10:42.290Z,13.30
2018-10-02T13:13:46.633Z,13.20
2018-10-02T13:16:50.970Z,13.00
2018-10-02T13:19:55.950Z,13.00
2018-10-02T13:23:00.302Z,12.80
2018-10-02T13:26:05.393Z,12.70
2018-10-02T13:29:09.802Z,12.70
2018-10-02T13:32:14.181Z,12.70
2018-10-02T13:35:18.394Z,12.70
2018-10-02T13:38:22.693Z,12.70
2018-10-02T13:41:26.995Z,12.80
2018-10-02T13:44:31.332Z,12.90
2018-10-02T13:47:35.701Z,12.90
2018-10-02T13:50:40.118Z,13.10
2018-10-02T13:53:44.689Z,13.10
2018-10-02T13:56:49.060Z,13.00
2018-10-02T13:59:53.391Z,12.90
2018-10-02T14:02:57.740Z,12.80
2018-10-02T14:06:02.067Z,12.80
2018-10-02T14:09:08.020Z,12.80
2018-10-02T14:12:12.318Z,12.80
2018-10-02T14:15:16.659Z,12.70
2018-10-02T14:18:20.948Z,12.50
2018-10-02T14:21:25.306Z,12.50
2018-10-02T14:24:29.578Z,12.50
2018-10-02T14:27:33.944Z,12.60
2018-10-02T14:30:38.302Z,12.70
2018-10-02T14:33:42.694Z,12.80
2018-10-02T14:36:47.015Z,12.90
2018-10-02T14:39:51.313Z,13.00
2018-10-02T14:42:55.685Z,13.00
2018-10-02T14:46:00.068Z,13.00
2018-10-02T14:49:04.369Z,12.90
2018-10-02T14:52:08.700Z,13.00
2018-10-02T14:55:12.987Z,13.00
2018-10-02T14:58:17.415Z,12.90
2018-10-02T15:01:21.794Z,12.70
2018-10-02T15:04:26.082Z,12.40
2018-10-02T15:07:30.677Z,12.20
2018-10-02T15:10:35.311Z,12.10
2018-10-02T15:13:39.664Z,12.00
2018-10-02T15:16:44.035Z,11.90
2018-10-02T15:19:48.383Z,11.90
2018-10-02T15:22:52.766Z,11.70
2018-10-02T15:25:57.217Z,11.60
2018-10-02T15:29:01.637Z,11.70
2018-10-02T15:32:06.033Z,11.90
2018-10-02T15:35:10.968Z,12.00
2018-10-02T15:38:15.286Z,12.10
2018-10-02T15:41:19.708Z,12.00
2018-10-02T15:44:24.070Z,12.10
2018-10-02T15:47:30.454Z,12.10
2018-10-02T15:50:34.743Z,11.90
2018-10-02T15:53:39.128Z,11.70
2018-10-02T15:56:43.461Z,11.60
2018-10-02T15:59:48.538Z,11.30
2018-10-02T16:02:52.836Z,11.00
2018-10-02T16:05:57.124Z,10.70
2018-10-02T16:09:01.457Z,10.50
2018-10-02T16:12:06.733Z,10.30
2018-10-02T16:15:11.121Z,10.20
2018-10-02T16:18:15.472Z,10.30
2018-10-02T16:21:19.789Z,10.20
2018-10-02T16:24:24.102Z,10.30
2018-10-02T16:27:28.530Z,10.30
2018-10-02T16:30:32.921Z,10.40
2018-10-02T16:33:37.260Z,10.40
2018-10-02T16:36:41.609Z,10.40
2018-10-02T16:39:46.672Z,10.40
2018-10-02T16:42:51.032Z,10.40
2018-10-02T16:45:55.354Z,10.40
2018-10-02T16:48:59.690Z,10.40
2018-10-02T16:52:04.268Z,10.50
2018-10-02T16:55:08.663Z,10.50
2018-10-02T16:58:13.067Z,10.60
2018-10-02T17:01:17.495Z,10.30
2018-10-02T17:04:21.926Z,10.00
2018-10-02T17:07:26.350Z,9.90
2018-10-02T17:10:30.776Z,9.70
2018-10-02T17:13:36.385Z,9.60
2018-10-02T17:16:41.471Z,9.60
2018-10-02T17:19:46.734Z,9.60
2018-10-02T17:22:52.264Z,9.40
2018-10-02T17:25:57.384Z,9.30
2018-10-02T17:29:02.597Z,9.20
2018-10-02T17:32:08.231Z,9.10
2018-10-02T17:35:12.758Z,9.00
2018-10-02T17:38:17.144Z,8.90
2018-10-02T17:41:21.413Z,8.80
2018-10-02T17:44:25.796Z,8.80
2018-10-02T17:47:30.109Z,8.80
2018-10-02T17:50:34.418Z,8.90
2018-10-02T17:53:38.745Z,8.90
2018-10-02T17:56:43.073Z,9.10
2018-10-02T17:59:47.409Z,9.10
2018-10-02T18:02:51.725Z,9.20
2018-10-02T18:05:56.133Z,9.20
2018-10-02T18:09:00.534Z,9.20
2018-10-02T18:12:04.903Z,9.20
2018-10-02T18:15:09.275Z,9.20
2018-10-02T18:18:13.590Z,9.30
2018-10-02T18:21:18.043Z,9.50
2018-10-02T18:24:22.386Z,9.50
2018-10-02T18:27:26.808Z,9.50
2018-10-02T18:30:31.709Z,9.60
2018-10-02T18:33:36.159Z,9.60
2018-10-02T18:36:40.585Z,9.70
2018-10-02T18:39:45.157Z,9.70
2018-10-02T18:42:49.595Z,9.90
2018-10-02T18:45:53.953Z,10.00
2018-10-02T18:48:58.426Z,10.00
2018-10-02T18:52:02.895Z,9.90
2018-10-02T18:55:07.709Z,9.70
2018-10-02T18:58:12.305Z,9.60
2018-10-02T19:01:17.829Z,9.50
2018-10-02T19:04:22.250Z,9.50
2018-10-02T19:07:26.894Z,9.50
2018-10-02T19:10:31.612Z,9.60
2018-10-02T19:13:36.614Z,9.60
2018-10-02T19:16:41.395Z,9.60
2018-10-02T19:19:51.225Z,9.60
2018-10-02T19:22:55.924Z,9.60
2018-10-02T19:26:10.838Z,9.60
2018-10-02T19:29:15.648Z,9.60
2018-10-02T19:32:20.569Z,9.70
2018-10-02T19:35:25.494Z,9.80
2018-10-02T19:38:35.241Z,9.90
2018-10-02T19:41:40.062Z,9.90
2018-10-02T19:44:45.044Z,9.90
2018-10-02T19:47:49.731Z,9.90
2018-10-02T19:50:57.976Z,10.00
2018-10-02T19:54:03.414Z,10.10
2018-10-02T19:57:09.746Z,10.20
2018-10-02T20:00:14.528Z,10.20
2018-10-02T20:03:19.347Z,10.20
2018-10-02T20:06:23.972Z,10.30
2018-10-02T20:09:28.694Z,10.40
2018-10-02T20:12:33.370Z,10.20
2018-10-02T20:15:38.094Z,10.00
2018-10-02T20:18:42.820Z,9.80
2018-10-02T20:21:47.524Z,9.70
2018-10-02T20:24:52.353Z,9.70
2018-10-02T20:27:57.009Z,6.20
2018-10-02T20:31:01.746Z,9.60
2018-10-02T20:34:06.481Z,9.70
2018-10-02T20:37:11.025Z,9.70
2018-10-02T20:40:15.664Z,9.80
2018-10-02T20:43:20.518Z,9.90
2018-10-02T20:46:25.339Z,9.90
2018-10-02T20:49:30.074Z,9.90
2018-10-02T20:52:34.644Z,9.90
2018-10-02T20:55:39.268Z,10.00
2018-10-02T20:58:43.752Z,10.00
2018-10-02T21:01:48.114Z,10.00
2018-10-02T21:04:52.849Z,10.10
2018-10-02T21:07:57.619Z,10.10
2018-10-02T21:11:02.042Z,10.20
2018-10-02T21:14:06.454Z,10.30
2018-10-02T21:17:10.742Z,10.30
2018-10-02T21:20:15.102Z,10.00
2018-10-02T21:23:19.552Z,9.80
2018-10-02T21:26:23.928Z,9.70
2018-10-02T21:29:28.230Z,9.60
2018-10-02T21:32:32.605Z,9.50
2018-10-02T21:35:36.992Z,9.60
2018-10-02T21:38:42.044Z,9.60
2018-10-02T21:41:46.335Z,9.60
2018-10-02T21:44:50.762Z,9.60
2018-10-02T21:47:55.117Z,9.50
2018-10-02T21:50:59.595Z,9.40
2018-10-02T21:54:03.971Z,9.30
2018-10-02T21:57:08.321Z,9.30
2018-10-02T22:00:12.698Z,9.40
2018-10-02T22:03:17.046Z,9.40
2018-10-02T22:06:21.412Z,9.50
2018-10-02T22:09:25.754Z,9.50
2018-10-02T22:12:30.140Z,9.50
2018-10-02T22:15:34.986Z,9.60
2018-10-02T22:18:39.339Z,9.60
2018-10-02T22:21:43.665Z,9.70
2018-10-02T22:24:48.093Z,9.70
2018-10-02T22:27:52.654Z,9.80
2018-10-02T22:30:58.043Z,9.90
2018-10-02T22:34:02.395Z,9.90
2018-10-02T22:37:06.725Z,9.90
2018-10-02T22:40:12.701Z,9.90
2018-10-02T22:43:17.015Z,9.90
2018-10-02T22:46:21.288Z,9.90
2018-10-02T22:49:25.533Z,9.80
2018-10-02T22:52:29.819Z,9.80
2018-10-02T22:55:34.162Z,9.70
2018-10-02T22:58:38.417Z,9.70
2018-10-02T23:01:42.817Z,9.70
2018-10-02T23:04:47.114Z,9.70
2018-10-02T23:07:51.397Z,9.70
2018-10-02T23:10:55.654Z,9.90
2018-10-02T23:13:59.980Z,10.00
2018-10-02T23:17:05.314Z,10.10
2018-10-02T23:20:10.451Z,10.20
2018-10-02T23:23:16.356Z,10.30
2018-10-02T23:26:21.737Z,10.40
2018-10-02T23:29:26.811Z,10.40
2018-10-02T23:32:31.140Z,10.10
2018-10-02T23:35:35.480Z,9.50
2018-10-02T23:38:39.782Z,9.20
2018-10-02T23:41:44.085Z,9.00
2018-10-02T23:44:48.423Z,8.80
2018-10-02T23:47:52.784Z,8.70
2018-10-02T23:50:57.022Z,8.80
2018-10-02T23:54:01.418Z,8.80
2018-10-02T23:57:06.179Z,8.80
